createdAt,value
2023-04-01T00:02:36.769Z,78.51
2023-04-01T00:05:39.786Z,78.39
2023-04-01T00:08:42.650Z,77.98
2023-04-01T00:11:46.580Z,78.05
2023-04-01T00:14:49.291Z,78.77
2023-04-01T00:17:52.096Z,78.70
2023-04-01T00:20:55.098Z,78.46
2023-04-01T00:23:58.844Z,78.60
2023-04-01T00:27:01.601Z,79.26
2023-04-01T00:30:05.434Z,78.82
2023-04-01T00:33:08.222Z,79.13
2023-04-01T00:36:17.324Z,79.48
2023-04-01T00:39:21.998Z,79.40
2023-04-01T00:42:24.937Z,79.69
2023-04-01T00:45:44.683Z,79.68
2023-04-01T00:48:56.534Z,79.66
2023-04-01T00:52:02.780Z,79.96
2023-04-01T00:55:08.498Z,79.70
2023-04-01T00:58:17.033Z,79.38
2023-04-01T01:01:23.051Z,80.37
2023-04-01T01:04:29.396Z,79.81
2023-04-01T01:07:32.057Z,79.94
2023-04-01T01:10:36.347Z,80.79
2023-04-01T01:14:04.912Z,81.13
2023-04-01T01:17:39.881Z,81.40
2023-04-01T01:21:03.765Z,80.94
2023-04-01T01:24:25.700Z,80.94
2023-04-01T01:27:30.583Z,80.97
2023-04-01T01:30:44.088Z,81.50
2023-04-01T01:34:12.750Z,81.88
2023-04-01T01:37:18.615Z,82.12
2023-04-01T01:40:22.533Z,82.10
2023-04-01T01:43:31.329Z,82.22
2023-04-01T01:46:34.405Z,82.37
2023-04-01T01:49:38.097Z,82.10
2023-04-01T01:52:40.884Z,82.44
2023-04-01T01:55:46.909Z,82.39
2023-04-01T01:59:01.454Z,82.27
2023-04-01T02:02:09.095Z,82.38
2023-04-01T02:05:15.807Z,82.92
2023-04-01T02:08:27.985Z,82.77
2023-04-01T02:11:48.841Z,82.98
2023-04-01T02:14:55.885Z,83.38
2023-04-01T02:17:59.100Z,83.61
2023-04-01T02:21:02.163Z,83.94
2023-04-01T02:24:10.012Z,83.88
2023-04-01T02:27:13.515Z,84.35
2023-04-01T02:30:18.452Z,84.71
2023-04-01T02:33:22.140Z,85.25
2023-04-01T02:36:26.464Z,85.24
2023-04-01T02:39:29.683Z,84.59
2023-04-01T02:42:32.480Z,84.53
2023-04-01T02:45:35.397Z,84.25
2023-04-01T02:48:38.915Z,84.46
2023-04-01T02:51:41.687Z,84.52
2023-04-01T02:54:44.565Z,84.46
2023-04-01T02:57:47.323Z,84.60
2023-04-01T03:00:50.163Z,84.58
2023-04-01T03:03:53.083Z,84.81
2023-04-01T03:06:56.510Z,85.20
2023-04-01T03:09:59.278Z,84.90
2023-04-01T03:13:02.777Z,84.82
2023-04-01T03:16:06.064Z,84.73
2023-04-01T03:19:08.973Z,84.33
2023-04-01T03:22:12.557Z,84.15
2023-04-01T03:25:15.412Z,83.95
2023-04-01T03:28:18.183Z,83.52
2023-04-01T03:31:22.457Z,83.19
2023-04-01T03:34:30.423Z,83.43
2023-04-01T03:37:33.287Z,83.25
2023-04-01T03:40:38.414Z,83.34
2023-04-01T03:43:42.711Z,83.62
2023-04-01T03:46:45.544Z,82.99
2023-04-01T03:49:48.542Z,82.72
2023-04-01T03:52:52.298Z,82.71
2023-04-01T03:55:55.498Z,83.30
2023-04-01T03:58:58.453Z,82.81
2023-04-01T04:02:01.477Z,82.80
2023-04-01T04:05:06.966Z,82.75
2023-04-01T04:08:10.468Z,82.75
2023-04-01T04:11:13.327Z,82.56
2023-04-01T04:14:18.372Z,82.64
2023-04-01T04:17:22.111Z,82.94
2023-04-01T04:20:25.012Z,82.78
2023-04-01T04:23:29.489Z,82.51
2023-04-01T04:26:32.702Z,83.26
2023-04-01T04:29:37.033Z,83.52
2023-04-01T04:32:39.901Z,84.78
2023-04-01T04:35:42.750Z,85.76
2023-04-01T04:38:47.027Z,86.19
2023-04-01T04:41:49.948Z,85.68
2023-04-01T04:44:53.154Z,86.15
2023-04-01T04:47:56.166Z,86.25
2023-04-01T04:50:59.228Z,86.70
2023-04-01T04:54:01.990Z,86.54
2023-04-01T04:57:18.316Z,86.45
2023-04-01T05:00:28.280Z,85.22
2023-04-01T05:03:37.070Z,85.25
2023-04-01T05:06:39.900Z,85.07
2023-04-01T05:09:43.303Z,84.41
2023-04-01T05:12:46.849Z,83.64
2023-04-01T05:15:54.075Z,83.31
2023-04-01T05:18:57.012Z,82.95
2023-04-01T05:21:59.844Z,82.98
2023-04-01T05:25:02.914Z,82.93
2023-04-01T05:28:05.822Z,82.92
2023-04-01T05:31:09.922Z,83.49
2023-04-01T05:34:15.878Z,83.79
2023-04-01T05:37:18.988Z,83.73
2023-04-01T05:40:21.951Z,84.15
2023-04-01T05:43:24.684Z,85.17
2023-04-01T05:46:29.570Z,84.85
2023-04-01T05:49:48.901Z,84.39
2023-04-01T05:52:51.852Z,84.08
2023-04-01T05:55:54.635Z,83.59
2023-04-01T05:58:57.817Z,83.97
2023-04-01T06:02:01.025Z,84.43
2023-04-01T06:05:11.936Z,83.22
2023-04-01T06:08:19.817Z,83.29
2023-04-01T06:11:36.277Z,82.43
2023-04-01T06:15:04.602Z,81.99
2023-04-01T06:18:40.482Z,82.41
2023-04-01T06:21:43.421Z,83.25
2023-04-01T06:25:12.248Z,83.36
2023-04-01T06:28:55.000Z,82.82
2023-04-01T06:32:35.460Z,82.59
2023-04-01T06:36:06.063Z,82.27
2023-04-01T06:39:31.087Z,81.66
2023-04-01T06:43:09.805Z,81.44
2023-04-01T06:46:58.994Z,81.22
2023-04-01T06:50:31.282Z,81.37
2023-04-01T06:54:32.225Z,81.60
2023-04-01T06:57:48.627Z,81.90
2023-04-01T07:01:05.079Z,81.85
2023-04-01T07:04:16.218Z,82.13
2023-04-01T07:07:28.194Z,83.00
2023-04-01T07:10:59.675Z,82.14
2023-04-01T07:14:36.637Z,81.35
2023-04-01T07:17:42.980Z,79.73
2023-04-01T07:20:47.242Z,79.25
2023-04-01T07:23:51.842Z,79.32
2023-04-01T07:27:15.833Z,79.04
2023-04-01T07:30:23.246Z,79.00
2023-04-01T07:33:38.436Z,81.07
2023-04-01T07:37:15.644Z,81.11
2023-04-01T07:40:18.599Z,80.12
2023-04-01T07:43:41.383Z,79.83
2023-04-01T07:47:32.627Z,79.32
2023-04-01T07:50:47.110Z,79.39
2023-04-01T07:54:09.125Z,79.20
2023-04-01T07:57:35.094Z,77.79
2023-04-01T08:00:57.630Z,77.17
2023-04-01T08:04:47.636Z,77.82
2023-04-01T08:08:00.906Z,77.46
2023-04-01T08:11:53.552Z,77.04
2023-04-01T08:15:31.127Z,77.37
2023-04-01T08:19:25.631Z,77.15
2023-04-01T08:22:42.940Z,76.64
2023-04-01T08:26:06.503Z,77.90
2023-04-01T08:29:19.498Z,76.87
2023-04-01T08:32:47.401Z,77.11
2023-04-01T08:35:59.905Z,76.14
2023-04-01T08:39:13.693Z,75.54
2023-04-01T08:42:47.220Z,76.67
2023-04-01T08:46:10.413Z,77.90
2023-04-01T08:49:51.005Z,76.32
2023-04-01T08:53:29.016Z,75.74
2023-04-01T08:56:43.153Z,75.87
2023-04-01T09:00:28.101Z,75.12
2023-04-01T09:04:06.507Z,75.06
2023-04-01T09:07:21.725Z,75.65
2023-04-01T09:10:37.181Z,74.81
2023-04-01T09:14:28.606Z,75.34
2023-04-01T09:18:14.983Z,74.85
2023-04-01T09:21:21.909Z,74.27
2023-04-01T09:24:39.279Z,74.63
2023-04-01T09:27:57.247Z,71.94
2023-04-01T09:31:03.010Z,68.99
2023-04-01T09:34:34.274Z,67.89
2023-04-01T09:37:45.698Z,66.94
2023-04-01T09:41:01.400Z,68.12
2023-04-01T09:44:43.329Z,67.21
2023-04-01T09:48:04.937Z,66.84
2023-04-01T09:51:32.896Z,65.83
2023-04-01T09:55:00.029Z,65.89
2023-04-01T09:58:23.128Z,65.86
2023-04-01T10:02:33.578Z,66.01
2023-04-01T10:05:55.398Z,66.04
2023-04-01T10:09:23.194Z,65.56
2023-04-01T10:13:13.104Z,65.64
2023-04-01T10:16:37.345Z,64.93
2023-04-01T10:20:05.634Z,62.91
2023-04-01T10:23:41.863Z,65.22
2023-04-01T10:26:51.079Z,64.86
2023-04-01T10:30:53.906Z,62.92
2023-04-01T10:34:25.454Z,63.00
2023-04-01T10:37:58.016Z,63.52
2023-04-01T10:41:17.463Z,61.65
2023-04-01T10:45:21.103Z,62.46
2023-04-01T10:48:45.317Z,63.46
2023-04-01T10:52:24.825Z,62.22
2023-04-01T10:56:10.483Z,62.16
2023-04-01T11:00:00.255Z,61.49
2023-04-01T11:03:56.219Z,61.87
2023-04-01T11:07:29.225Z,61.47
2023-04-01T11:11:10.455Z,62.16
2023-04-01T11:14:50.914Z,61.83
2023-04-01T11:18:32.917Z,61.20
2023-04-01T11:22:10.671Z,60.76
2023-04-01T11:25:38.800Z,60.84
2023-04-01T11:29:21.878Z,58.71
2023-04-01T11:32:35.054Z,58.32
2023-04-01T11:35:47.796Z,57.82
2023-04-01T11:39:15.731Z,58.19
2023-04-01T11:42:56.077Z,57.46
2023-04-01T11:46:25.130Z,56.32
2023-04-01T11:49:51.056Z,55.20
2023-04-01T11:53:18.634Z,53.87
2023-04-01T11:56:45.772Z,56.46
2023-04-01T12:00:14.300Z,58.15
2023-04-01T12:03:47.854Z,58.53
2023-04-01T12:06:56.342Z,58.59
2023-04-01T12:10:35.046Z,57.22
2023-04-01T12:13:49.216Z,63.93
2023-04-01T12:17:27.328Z,65.62
2023-04-01T12:20:45.402Z,66.26
2023-04-01T12:24:00.056Z,65.43
2023-04-01T12:27:30.450Z,66.82
2023-04-01T12:30:52.554Z,64.19
2023-04-01T12:34:07.642Z,62.94
2023-04-01T12:37:36.588Z,64.09
2023-04-01T12:41:01.076Z,62.69
2023-04-01T12:44:19.147Z,62.71
2023-04-01T12:47:29.284Z,61.22
2023-04-01T12:50:47.833Z,63.19
2023-04-01T12:54:08.645Z,61.17
2023-04-01T12:57:45.817Z,61.37
2023-04-01T13:00:54.353Z,62.62
2023-04-01T13:04:06.212Z,60.18
2023-04-01T13:07:22.758Z,58.95
2023-04-01T13:10:34.567Z,61.42
2023-04-01T13:14:00.772Z,62.49
2023-04-01T13:17:21.926Z,63.19
2023-04-01T13:20:40.310Z,62.25
2023-04-01T13:24:10.349Z,61.62
2023-04-01T13:27:23.374Z,61.01
2023-04-01T13:30:31.814Z,56.90
2023-04-01T13:34:00.900Z,57.68
2023-04-01T13:37:36.968Z,61.21
2023-04-01T13:41:13.580Z,60.45
2023-04-01T13:44:30.086Z,62.15
2023-04-01T13:47:52.543Z,62.40
2023-04-01T13:51:07.288Z,62.81
2023-04-01T13:54:21.950Z,62.24
2023-04-01T13:57:55.967Z,59.67
2023-04-01T14:01:29.554Z,57.86
2023-04-01T14:04:44.847Z,53.63
2023-04-01T14:08:09.118Z,50.06
2023-04-01T14:11:53.802Z,47.32
2023-04-01T14:15:26.455Z,45.51
2023-04-01T14:18:51.642Z,47.78
2023-04-01T14:22:39.565Z,50.67
2023-04-01T14:26:03.504Z,50.35
2023-04-01T14:29:24.175Z,51.98
2023-04-01T14:32:35.996Z,53.41
2023-04-01T14:36:05.945Z,55.57
2023-04-01T14:39:23.697Z,55.02
2023-04-01T14:42:29.219Z,55.27
2023-04-01T14:46:01.049Z,56.41
2023-04-01T14:49:15.490Z,57.08
2023-04-01T14:52:32.990Z,57.54
2023-04-01T14:55:44.586Z,58.72
2023-04-01T14:58:51.767Z,58.90
2023-04-01T15:02:02.398Z,61.02
2023-04-01T15:05:43.741Z,62.50
2023-04-01T15:08:55.985Z,64.74
2023-04-01T15:12:15.658Z,65.25
2023-04-01T15:15:46.362Z,64.41
2023-04-01T15:19:10.520Z,64.39
2023-04-01T15:22:54.320Z,64.42
2023-04-01T15:26:12.841Z,64.81
2023-04-01T15:29:40.631Z,64.95
2023-04-01T15:33:12.356Z,65.34
2023-04-01T15:36:48.819Z,65.74
2023-04-01T15:40:07.164Z,65.88
2023-04-01T15:43:28.985Z,65.86
2023-04-01T15:46:41.902Z,66.46
2023-04-01T15:49:56.609Z,66.21
2023-04-01T15:53:40.605Z,65.80
2023-04-01T15:57:13.247Z,65.39
2023-04-01T16:00:43.799Z,65.67
2023-04-01T16:04:00.859Z,65.84
2023-04-01T16:07:12.495Z,65.71
2023-04-01T16:10:18.191Z,66.30
2023-04-01T16:13:39.413Z,67.02
2023-04-01T16:16:52.637Z,66.76
2023-04-01T16:20:03.773Z,66.80
2023-04-01T16:23:40.404Z,66.73
2023-04-01T16:26:54.347Z,67.01
2023-04-01T16:30:04.378Z,67.60
2023-04-01T16:33:22.435Z,66.87
2023-04-01T16:36:57.077Z,66.47
2023-04-01T16:40:21.854Z,66.27
2023-04-01T16:43:31.800Z,67.39
2023-04-01T16:46:47.834Z,67.08
2023-04-01T16:50:11.514Z,66.93
2023-04-01T16:53:16.581Z,66.77
2023-04-01T16:56:39.173Z,66.02
2023-04-01T16:59:46.664Z,66.65
2023-04-01T17:02:52.961Z,66.19
2023-04-01T17:06:04.662Z,67.36
2023-04-01T17:09:38.309Z,67.63
2023-04-01T17:13:19.121Z,68.38
2023-04-01T17:17:03.947Z,69.00
2023-04-01T17:20:41.451Z,69.60
2023-04-01T17:24:22.762Z,70.20
2023-04-01T17:27:52.423Z,70.89
2023-04-01T17:31:19.886Z,71.07
2023-04-01T17:34:29.126Z,71.80
2023-04-01T17:38:00.992Z,72.12
2023-04-01T17:41:27.744Z,72.55
2023-04-01T17:44:34.033Z,72.42
2023-04-01T17:47:49.115Z,72.60
2023-04-01T17:50:54.908Z,72.62
2023-04-01T17:54:25.616Z,73.08
2023-04-01T17:57:45.181Z,73.15
2023-04-01T18:01:07.296Z,72.93
2023-04-01T18:04:51.592Z,73.65
2023-04-01T18:08:10.103Z,73.57
2023-04-01T18:11:53.880Z,74.02
2023-04-01T18:15:20.580Z,74.45
2023-04-01T18:18:45.672Z,74.42
2023-04-01T18:21:53.338Z,74.45
2023-04-01T18:25:14.655Z,74.53
2023-04-01T18:28:38.664Z,75.01
2023-04-01T18:31:47.056Z,75.02
2023-04-01T18:35:02.808Z,75.10
2023-04-01T18:38:20.050Z,75.66
2023-04-01T18:42:01.476Z,75.72
2023-04-01T18:45:35.095Z,75.93
2023-04-01T18:49:02.130Z,76.20
2023-04-01T18:52:28.882Z,76.26
2023-04-01T18:55:47.703Z,76.47
2023-04-01T18:59:07.196Z,76.70
2023-04-01T19:02:30.038Z,76.74
2023-04-01T19:05:37.886Z,76.39
2023-04-01T19:08:42.023Z,76.70
2023-04-01T19:12:08.811Z,76.40
2023-04-01T19:15:11.848Z,76.59
2023-04-01T19:18:23.525Z,76.46
2023-04-01T19:21:38.108Z,76.26
2023-04-01T19:24:49.838Z,76.01
2023-04-01T19:28:02.267Z,75.62
2023-04-01T19:31:20.777Z,75.39
2023-04-01T19:34:32.800Z,75.06
2023-04-01T19:37:45.606Z,74.97
2023-04-01T19:41:25.990Z,74.79
2023-04-01T19:45:07.688Z,74.88
2023-04-01T19:48:33.007Z,75.11
2023-04-01T19:51:48.810Z,75.41
2023-04-01T19:54:57.212Z,75.50
2023-04-01T19:58:27.319Z,75.52
2023-04-01T20:01:47.156Z,75.78
2023-04-01T20:04:57.652Z,75.78
2023-04-01T20:08:09.944Z,75.64
2023-04-01T20:11:31.468Z,75.83
2023-04-01T20:14:48.880Z,75.64
2023-04-01T20:17:54.967Z,76.05
2023-04-01T20:21:03.172Z,75.47
2023-04-01T20:24:15.332Z,75.81
2023-04-01T20:27:25.566Z,76.41
2023-04-01T20:30:47.485Z,76.82
2023-04-01T20:34:08.657Z,76.47
2023-04-01T20:37:33.235Z,76.71
2023-04-01T20:40:39.958Z,76.62
2023-04-01T20:43:56.888Z,76.63
2023-04-01T20:47:37.174Z,76.50
2023-04-01T20:50:53.209Z,76.75
2023-04-01T20:54:43.739Z,77.23
2023-04-01T20:58:18.248Z,77.65
2023-04-01T21:01:32.972Z,77.59
2023-04-01T21:05:09.652Z,78.13
2023-04-01T21:08:26.094Z,78.34
2023-04-01T21:11:50.821Z,77.87
2023-04-01T21:15:04.269Z,78.24
2023-04-01T21:18:37.597Z,78.82
2023-04-01T21:21:48.216Z,79.25
2023-04-01T21:25:16.997Z,79.39
2023-04-01T21:28:22.728Z,79.35
2023-04-01T21:31:37.287Z,79.78
2023-04-01T21:34:55.936Z,79.50
2023-04-01T21:38:10.472Z,79.32
2023-04-01T21:41:21.919Z,79.19
2023-04-01T21:44:47.739Z,78.92
2023-04-01T21:48:04.829Z,78.73
2023-04-01T21:51:43.845Z,78.74
2023-04-01T21:55:23.955Z,78.97
2023-04-01T21:58:51.431Z,79.88
2023-04-01T22:02:21.276Z,79.23
2023-04-01T22:05:28.293Z,78.91
2023-04-01T22:08:56.281Z,78.51
2023-04-01T22:12:30.510Z,78.55
2023-04-01T22:16:08.598Z,78.19
2023-04-01T22:19:21.082Z,78.08
2023-04-01T22:22:35.693Z,77.67
2023-04-01T22:26:12.184Z,77.72
2023-04-01T22:29:29.586Z,77.50
2023-04-01T22:32:46.625Z,77.42
2023-04-01T22:36:05.845Z,77.14
2023-04-01T22:39:14.204Z,76.71
2023-04-01T22:42:25.364Z,76.44
2023-04-01T22:46:05.570Z,76.02
2023-04-01T22:49:30.477Z,75.13
2023-04-01T22:52:40.061Z,74.84
2023-04-01T22:55:53.693Z,74.45
2023-04-01T22:59:18.946Z,74.40
2023-04-01T23:02:29.869Z,74.16
2023-04-01T23:05:35.096Z,74.06
2023-04-01T23:08:38.204Z,74.18
2023-04-01T23:11:52.873Z,75.39
2023-04-01T23:15:00.980Z,75.68
2023-04-01T23:18:13.925Z,75.37
2023-04-01T23:21:35.030Z,74.48
2023-04-01T23:24:46.256Z,73.17
2023-04-01T23:27:57.528Z,72.56
2023-04-01T23:31:00.492Z,71.91
2023-04-01T23:34:34.816Z,71.65
2023-04-01T23:37:37.533Z,70.62
2023-04-01T23:40:41.809Z,69.99
2023-04-01T23:43:46.601Z,68.73
2023-04-01T23:46:50.461Z,68.62
2023-04-01T23:49:56.167Z,68.55
2023-04-01T23:53:04.187Z,69.14
2023-04-01T23:56:07.482Z,71.08
2023-04-01T23:59:40.914Z,70.77
